CheckWX is a tool to help pilots better visualize weather data.  It is not intended as a substitute for an official pre-flight weather briefing.

21:37:02 UTC

PAHN TAF
Haines Airport
Haines, Alaska, USA
PAHN 201727Z 2018/2118 30013KT P6SM BKN140 FM202100 30009KT P6SM BKN120 FM210100 08007KT P6SM VCSH OVC070 FM211000 VRB06KT 6SM -RA BR OVC025 AMD LTD TO CLD VIS AND WIND

Mar-20@
18:00 UTC

Mar-20 @ 18:00 UTC

Mar-20@
21:00 UTC

Mar-20 @ 21:00 UTC

PAHN 201727Z 2018/2118 30013KT P6SM BKN140

Expired

Wind
  • 300° at 13 KTS
Cloud Levels
  • Broken at 14,000' AGL

Mar-20@
21:00 UTC

Mar-20 @ 21:00 UTC

Mar-21@
01:00 UTC

Mar-21 @ 01:00 UTC

FM202100 30009KT P6SM BKN120

From

From Standard forecast or significant change

Wind
  • 300° at 9 KTS
Cloud Levels
  • Broken at 12,000' AGL

Mar-21@
01:00 UTC

Mar-21 @ 01:00 UTC

Mar-21@
10:00 UTC

Mar-21 @ 10:00 UTC

FM210100 08007KT P6SM VCSH OVC070

From

From Standard forecast or significant change

Wind
  • 080° at 7 KTS
Cloud Levels
  • Overcast at 7,000' AGL

Mar-21@
10:00 UTC

Mar-21 @ 10:00 UTC

Mar-21@
18:00 UTC

Mar-21 @ 18:00 UTC

FM211000 VRB06KT 6SM -RA BR OVC025 AMD LTD TO CLD VIS AND WIND

From

From Standard forecast or significant change

Wind
  • Variable at 6 KTS
Conditions
Light Rain, Mist
Cloud Levels
  • Overcast at 2,500' AGL